Latest Weather Observations for Golden Grove

IDW60801

Issued at 8:04 pm WST Wednesday 3 March 2021 (issued every 10 minutes, with the page automatically refreshed every 10 minutes)

About weather observations | Map of weather stations | Latest weather observations for WA | Other Formats
Station Details ID: 507017 Name: GOLDEN GROVE Lat: -28.76 Lon: 116.97 Height: 356.3 m
Data from the previous 72 hours. | See also: Recent months for locations in Western Australia
Date/Time
WST
Temp
°C
App
Temp
°C
Dew
Point
°C
Rel
Hum
%
Delta-T
°C
Wind Press
QNH
hPa
Press
MSL
hPa
Rain since
9am
mm
Dir  Spd
km/h
Gust
km/h
Spd
kts
Gust
kts
03/08:00pm 22.9 22.7 19.7 82 2.1 NE 20 30 11 16 1007.8 - -
03/07:30pm 23.0 22.3 19.4 80 2.3 NNE 22 33 12 18 1008.1 - -
03/07:00pm 25.3 25.8 19.2 69 4.0 N 15 20 8 11 1008.0 - -
03/06:30pm 25.3 26.2 19.2 69 4.0 N 13 20 7 11 1007.6 - -
03/06:00pm 25.7 25.3 18.9 66 4.4 NNE 19 28 10 15 1006.4 - -
03/05:30pm 25.7 25.0 18.6 65 4.6 NNE 20 26 11 14 1006.3 - -
03/05:00pm 26.0 24.8 19.2 66 4.4 NNE 24 37 13 20 1005.9 - -
03/04:30pm 26.1 23.7 19.0 65 4.6 N 30 41 16 22 1006.2 - -
03/04:00pm 26.3 25.2 19.4 66 4.5 NNE 24 39 13 21 1006.1 - -
03/03:30pm 25.5 25.9 20.7 75 3.2 NNE 19 26 10 14 1006.4 - -
03/03:00pm 25.0 23.6 20.5 76 3.0 NNE 28 39 15 21 1006.7 - -
03/02:30pm 26.2 26.3 20.3 70 3.9 N 20 30 11 16 1007.0 - 8.2
03/02:00pm 26.1 26.0 20.7 72 3.6 N 22 35 12 19 1007.7 - 8.2
03/01:30pm 25.1 25.3 20.6 76 3.0 NE 20 28 11 15 1007.8 - 8.2
03/01:00pm 24.2 23.1 20.3 79 2.6 NE 26 35 14 19 1007.8 - 8.2
03/12:53pm 24.4 24.8 20.9 81 2.3 NE 20 28 11 15 1007.6 - 8.0
03/12:42pm 23.2 24.1 21.5 90 1.1 ENE 19 26 10 14 1008.1 - 8.0
03/12:30pm 22.4 23.6 20.7 90 1.1 NE 15 20 8 11 1008.4 - 8.0
03/12:00pm 21.0 22.6 20.0 94 0.7 N 11 17 6 9 1009.5 - 8.0
03/11:48am 20.8 20.6 19.8 94 0.6 NE 20 30 11 16 1009.9 - 8.0
03/11:40am 20.7 20.5 19.7 94 0.6 ENE 20 30 11 16 1008.2 - 7.6
03/11:30am 20.9 20.4 19.9 94 0.6 NNE 22 30 12 16 1010.3 - 6.8
03/11:12am 21.3 21.9 20.3 94 0.7 NNE 17 24 9 13 1010.9 - 4.6
03/11:08am 21.3 22.4 20.5 95 0.5 NNE 15 22 8 12 1010.9 - 4.0
03/11:00am 21.3 22.8 20.6 96 0.5 NE 13 30 7 16 1010.7 - 3.0
03/10:56am 21.3 23.3 20.8 97 0.3 NE 11 30 6 16 1010.6 - 2.6
03/10:30am 21.3 23.2 20.6 96 0.5 E 11 15 6 8 1009.7 - 1.0
03/10:14am 21.3 24.0 20.6 96 0.5 ESE 7 11 4 6 1009.5 - 1.0
03/10:00am 21.3 24.0 20.3 94 0.7 ESE 6 7 3 4 1009.6 - 0.4
03/09:42am 21.2 23.4 20.5 96 0.5 ESE 9 13 5 7 1009.5 - 0.2
03/09:30am 20.8 23.0 20.5 98 0.2 ESE 9 11 5 6 1009.5 - 0.2
03/09:04am 20.0 21.9 19.7 98 0.2 E 9 13 5 7 1009.8 - 0.0
03/09:00am 20.0 21.9 19.7 98 0.2 ENE 9 11 5 6 1010.0 - 55.0
03/08:30am 19.9 22.0 19.4 97 0.3 NE 7 9 4 5 1010.3 - 53.0
03/08:24am 19.9 21.6 19.4 97 0.3 NE 9 17 5 9 1010.3 - 52.2
03/08:23am 19.9 21.2 19.4 97 0.3 NE 11 17 6 9 1010.3 - 52.0
03/08:22am 20.0 21.4 19.5 97 0.3 NE 11 17 6 9 1010.3 - 51.8
03/08:00am 19.8 21.2 19.5 98 0.2 ENE 11 17 6 9 1010.0 - 50.4
03/07:50am 19.7 20.7 19.4 98 0.2 E 13 20 7 11 1010.0 - 49.8
03/07:30am 19.5 20.8 19.2 98 0.2 ESE 11 17 6 9 1009.8 - 48.4
03/07:00am 19.4 19.8 19.1 98 0.2 ESE 15 19 8 10 1009.4 - 48.4
03/06:54am 19.3 20.1 19.0 98 0.2 ESE 13 19 7 10 1009.5 - 48.4
03/06:30am 19.3 19.2 18.8 97 0.3 ESE 17 24 9 13 1009.5 - 48.4
03/06:03am 19.3 20.0 18.8 97 0.3 SE 13 19 7 10 1009.5 - 48.2
03/06:00am 19.3 20.0 18.8 97 0.3 SE 13 19 7 10 1009.5 - 48.0
03/05:30am 19.3 19.6 18.8 97 0.3 SE 15 24 8 13 1009.2 - 47.6
03/05:00am 19.2 19.5 18.7 97 0.3 SE 15 22 8 12 1009.0 - 47.6
03/04:30am 19.1 19.3 18.6 97 0.3 SE 15 20 8 11 1009.2 - 47.6
03/04:00am 19.0 19.3 18.7 98 0.2 SE 15 26 8 14 1008.8 - 47.6
03/03:30am 18.9 19.1 18.6 98 0.2 SSE 15 20 8 11 1009.2 - 47.6
03/03:01am 18.7 18.5 18.4 98 0.2 SSE 17 22 9 12 1009.4 - 47.6
03/03:00am 18.7 18.5 18.4 98 0.2 SSE 17 22 9 12 1009.3 - 47.6
03/02:48am 18.7 19.2 18.4 98 0.2 SSE 13 22 7 12 1009.4 - 47.4
03/02:30am 18.7 18.1 18.4 98 0.2 SE 19 24 10 13 1009.6 - 46.6
03/02:00am 18.7 19.6 18.4 98 0.2 ESE 11 17 6 9 1010.3 - 38.2
03/01:30am 18.8 20.1 18.5 98 0.2 SE 9 15 5 8 1010.3 - 28.8
03/01:00am 18.8 17.9 18.1 96 0.4 SE 20 30 11 16 1010.1 - 20.0
03/12:41am 19.5 19.4 18.7 95 0.5 SE 17 24 9 13 1010.6 - 18.0
03/12:30am 19.6 20.0 18.9 96 0.4 SE 15 24 8 13 1010.4 - 17.0
03/12:29am 19.7 20.1 19.0 96 0.4 SE 15 24 8 13 1010.3 - 16.8
03/12:03am 20.0 21.0 19.5 97 0.3 ESE 13 20 7 11 1010.8 - 15.2
03/12:00am 19.9 20.9 19.4 97 0.3 ESE 13 20 7 11 1010.8 - 14.8
 
Date/Time
WST
Temp
°C
App
Temp
°C
Dew
Point
°C
Rel
Hum
%
Delta-T
°C
Wind Press
QNH
hPa
Press
MSL
hPa
Rain since
9am
mm
Dir  Spd
km/h
Gust
km/h
Spd
kts
Gust
kts
02/11:30pm 19.8 21.8 19.1 96 0.4 SSE 7 11 4 6 1010.9 - 14.0
02/11:14pm 19.8 21.4 19.1 96 0.4 SSW 9 13 5 7 1010.9 - 13.6
02/11:01pm 19.9 22.0 19.4 97 0.3 SW 7 11 4 6 1011.2 - 13.0
02/11:00pm 19.9 21.9 19.2 96 0.4 SW 7 11 4 6 1011.3 - 13.0
02/10:30pm 20.1 21.8 19.3 95 0.5 WSW 9 13 5 7 1011.7 - 11.4
02/10:00pm 20.4 22.6 19.7 96 0.5 NW 7 11 4 6 1011.6 - 10.8
02/09:30pm 20.3 21.6 19.3 94 0.6 N 11 15 6 8 1012.0 - 9.6
02/09:00pm 20.0 20.8 19.0 94 0.6 NNW 13 17 7 9 1011.7 - 9.0
02/08:59pm 19.9 20.7 19.1 95 0.5 NNW 13 17 7 9 1011.7 - 9.0
02/08:30pm 20.2 17.0 18.7 91 1.0 NNW 33 48 18 26 1011.5 - 2.4
02/08:28pm 20.5 17.5 18.6 89 1.2 NNW 32 48 17 26 1011.5 - 2.0
02/08:18pm 21.9 20.6 18.1 79 2.4 NNW 22 48 12 26 1010.9 - 1.0
02/08:15pm 22.3 22.8 19.3 83 1.9 N 15 26 8 14 1010.8 - 1.0
02/08:00pm 22.4 24.2 18.8 80 2.3 ESE 7 9 4 5 1008.6 - 0.2
02/07:30pm 23.1 24.3 18.2 74 3.1 E 9 15 5 8 1008.6 - 0.2
02/07:00pm 23.0 25.6 17.5 71 3.5 CALM 0 0 0 0 1008.0 - 0.2
02/06:30pm 23.7 23.2 17.0 66 4.2 NNE 15 24 8 13 1007.8 - 0.2
02/06:00pm 24.6 23.1 16.3 60 5.2 NNE 19 28 10 15 1008.2 - 0.2
02/05:30pm 24.6 22.7 16.6 61 5.0 NNE 22 33 12 18 1008.3 - 0.2
02/05:00pm 25.1 22.7 16.5 59 5.4 NNE 24 35 13 19 1008.4 - 0.2
02/04:30pm 25.6 22.9 16.5 57 5.7 NNE 26 37 14 20 1008.5 - 0.2
02/04:00pm 25.9 22.9 16.7 57 5.8 NNE 28 37 15 20 1007.9 - 0.2
02/03:30pm 25.3 22.4 16.2 57 5.7 NNE 26 39 14 21 1008.4 - 0.2
02/03:00pm 25.8 22.1 16.1 55 6.0 NNE 30 43 16 23 1008.5 - 0.2
02/02:30pm 26.4 24.3 17.2 57 5.8 NNE 24 35 13 19 1008.8 - 0.2
02/02:00pm 25.9 23.0 16.2 55 6.0 NE 26 41 14 22 1009.1 - 0.2
02/01:30pm 27.2 24.0 16.2 51 6.9 NNE 28 43 15 23 1009.1 - 0.2
02/01:00pm 27.0 24.8 16.9 54 6.4 NE 24 35 13 19 1008.9 - 0.2
02/12:30pm 26.1 23.8 17.7 60 5.4 NE 26 35 14 19 1009.0 - 0.2
02/12:00pm 25.1 23.0 18.1 65 4.5 NNE 26 33 14 18 1009.4 - 0.2
02/11:30am 25.0 23.5 17.7 64 4.6 NE 22 28 12 15 1009.8 - 0.2
02/11:00am 23.7 22.9 17.0 66 4.2 NNE 17 22 9 12 1009.9 - 0.2
02/10:30am 24.2 20.9 17.0 64 4.5 NE 30 41 16 22 1010.3 - 0.2
02/10:00am 26.4 24.8 16.1 53 6.4 NNE 19 28 10 15 1010.1 - 0.2
02/09:30am 25.7 24.6 16.3 56 5.9 NE 17 24 9 13 1009.9 - 0.2
02/09:00am 24.1 24.1 17.1 65 4.4 ENE 13 17 7 9 1009.8 - 15.2
02/08:30am 22.7 22.8 16.5 68 3.8 E 11 15 6 8 1009.7 - 15.2
02/08:00am 21.4 20.8 16.6 74 3.0 E 15 20 8 11 1009.9 - 15.2
02/07:30am 20.3 19.7 16.7 80 2.2 ENE 15 20 8 11 1009.9 - 15.2
02/07:00am 19.1 19.3 16.7 86 1.5 E 11 13 6 7 1009.8 - 15.2
02/06:30am 18.3 18.8 16.5 89 1.1 E 9 13 5 7 1009.8 - 15.2
02/06:00am 18.0 18.0 16.3 90 1.0 E 11 13 6 7 1009.5 - 15.2
02/05:30am 18.1 18.2 16.4 90 1.0 E 11 13 6 7 1009.2 - 15.2
02/05:00am 18.4 18.2 16.6 89 1.1 E 13 15 7 8 1009.4 - 15.2
02/04:30am 18.6 18.9 16.9 90 1.0 E 11 15 6 8 1009.3 - 15.2
02/04:00am 18.6 18.9 17.1 91 0.9 E 11 13 6 7 1009.3 - 15.2
02/03:30am 18.6 18.6 17.1 91 0.9 ENE 13 15 7 8 1009.1 - 15.2
02/03:00am 18.3 18.7 17.3 94 0.6 E 11 13 6 7 1009.1 - 15.2
02/02:30am 18.1 19.0 17.5 96 0.4 E 9 13 5 7 1009.1 - 15.2
02/02:00am 18.1 19.0 17.5 96 0.4 ENE 9 11 5 6 1009.0 - 15.2
02/01:30am 18.0 18.9 17.5 97 0.3 E 9 13 5 7 1009.0 - 15.2
02/01:00am 18.0 18.5 17.4 96 0.4 E 11 13 6 7 1009.2 - 15.2
02/12:30am 18.1 18.5 17.3 95 0.5 ENE 11 13 6 7 1009.0 - 15.2
02/12:00am 18.0 18.8 17.2 95 0.5 ENE 9 13 5 7 1009.1 - 15.2
 
Date/Time
WST
Temp
°C
App
Temp
°C
Dew
Point
°C
Rel
Hum
%
Delta-T
°C
Wind Press
QNH
hPa
Press
MSL
hPa
Rain since
9am
mm
Dir  Spd
km/h
Gust
km/h
Spd
kts
Gust
kts
01/11:30pm 18.0 18.3 16.9 93 0.7 ENE 11 17 6 9 1008.8 - 15.2
01/11:00pm 17.8 17.3 16.8 94 0.6 E 15 17 8 9 1008.6 - 15.2
01/10:30pm 17.9 16.6 16.8 93 0.7 ESE 19 28 10 15 1008.6 - 15.2
01/10:00pm 17.8 16.3 16.7 93 0.7 E 20 30 11 16 1008.6 - 15.2
01/09:40pm 18.0 18.3 16.9 93 0.7 ENE 11 15 6 8 1009.5 - 14.0
01/09:30pm 18.1 18.2 16.4 90 1.0 SSE 11 17 6 9 1008.6 - 11.4
01/09:12pm 17.7 16.5 16.0 90 1.0 SSW 17 28 9 15 1009.0 - 11.4
01/09:00pm 17.6 14.7 16.1 91 0.9 SW 26 35 14 19 1008.8 - 11.2
01/08:38pm 17.6 13.3 16.8 95 0.5 WSW 35 54 19 29 1009.2 - 7.8
01/08:34pm 17.7 12.9 16.7 94 0.6 W 37 54 20 29 1009.3 - 7.0
01/08:31pm 17.9 13.4 16.4 91 0.9 W 35 52 19 28 1009.8 - 4.2
01/08:30pm 18.1 13.7 16.6 91 0.9 W 35 52 19 28 1010.0 - 2.8
01/08:26pm 18.5 14.5 16.7 89 1.1 WSW 33 50 18 27 1009.6 - 2.0
01/08:19pm 19.5 16.7 17.3 87 1.4 SW 28 50 15 27 1008.2 - 1.4
01/08:00pm 21.8 22.2 17.2 75 2.9 SW 11 26 6 14 1007.1 - 0.8
01/07:30pm 21.8 20.6 17.6 77 2.6 SW 20 32 11 17 1006.9 - 0.6
01/07:00pm 23.3 24.4 18.0 72 3.4 SSE 9 11 5 6 1006.3 - 0.4
01/06:30pm 21.7 24.1 17.9 79 2.4 WNW 2 7 1 4 1006.1 - 0.4
01/06:00pm 22.2 20.1 17.1 73 3.2 NW 24 39 13 21 1006.6 - 0.0
01/05:54pm 23.5 21.7 17.0 67 4.1 NNW 22 35 12 19 1006.7 - 0.0
01/05:30pm 28.6 25.0 12.9 38 9.4 N 24 30 13 16 1006.2 - 0.0
01/05:00pm 28.6 24.6 12.9 38 9.4 N 26 37 14 20 1006.1 - 0.0
01/04:30pm 28.8 25.3 13.5 39 9.2 NNE 24 41 13 22 1006.1 - 0.0
01/04:00pm 27.9 26.6 14.9 45 8.0 N 15 22 8 12 1006.2 - 0.0
01/03:30pm 29.0 27.0 12.8 36 9.7 N 15 20 8 11 1006.6 - 0.0
01/03:00pm 28.9 26.3 11.9 35 10.0 NNW 17 24 9 13 1007.0 - 0.0
01/02:30pm 28.8 26.1 11.8 35 10.0 NNW 17 24 9 13 1007.0 - 0.0
01/02:00pm 28.9 26.3 11.9 35 10.0 NNW 17 26 9 14 1007.0 - 0.0
01/01:30pm 29.1 26.3 12.5 36 9.9 NNW 19 30 10 16 1007.4 - 0.0
01/01:00pm 29.2 25.6 13.0 37 9.7 NW 24 32 13 17 1007.2 - 0.0
01/12:30pm 29.2 26.3 13.0 37 9.7 N 20 33 11 18 1007.0 - 0.0
01/12:00pm 28.8 26.2 13.1 38 9.4 N 19 24 10 13 1007.5 - 0.0
01/11:30am 27.5 25.7 13.4 41 8.5 NNE 15 20 8 11 1007.9 - 0.0
01/11:00am 26.9 25.9 13.3 43 8.1 N 11 17 6 9 1008.4 - 0.0
01/10:30am 26.3 25.7 13.4 45 7.7 N 9 13 5 7 1008.8 - 0.0
01/10:00am 26.0 25.1 13.8 47 7.3 N 11 17 6 9 1009.1 - 0.0
01/09:30am 25.9 24.7 14.1 48 7.1 N 13 17 7 9 1008.6 - 0.0
01/09:00am 25.5 24.8 14.3 50 6.8 N 11 15 6 8 1008.4 - 0.0
01/08:30am 25.0 24.3 14.2 51 6.5 NE 11 15 6 8 1007.9 - 0.0
01/08:00am 24.7 24.0 14.2 52 6.3 NNE 11 15 6 8 1007.6 - 0.0
01/07:30am 24.4 23.3 14.2 53 6.1 N 13 17 7 9 1007.6 - 0.0
01/07:00am 24.4 23.4 14.5 54 6.0 NNW 13 19 7 10 1007.7 - 0.0
01/06:30am 24.5 23.1 14.6 54 6.0 NW 15 20 8 11 1007.8 - 0.0
01/06:00am 24.7 22.9 14.5 53 6.2 NNW 17 24 9 13 1007.4 - 0.0
01/05:30am 25.1 23.4 14.6 52 6.4 NNW 17 20 9 11 1006.7 - 0.0
01/05:00am 26.8 23.7 12.1 40 8.6 NE 20 28 11 15 1005.8 - 0.0
01/04:30am 27.6 22.7 8.5 30 10.6 NE 24 35 13 19 1006.1 - 0.0
01/04:00am 27.8 22.9 8.6 30 10.7 ENE 24 32 13 17 1006.0 - 0.0
01/03:30am 27.9 24.4 8.7 30 10.7 E 17 32 9 17 1005.9 - 0.0
01/03:00am 27.9 23.7 8.2 29 10.9 ESE 20 30 11 16 1005.6 - 0.0
01/02:30am 27.9 23.7 8.2 29 10.9 E 20 30 11 16 1005.7 - 0.0
01/02:00am 27.9 24.1 7.7 28 11.1 SE 17 26 9 14 1006.0 - 0.0
01/01:30am 28.1 24.4 7.9 28 11.1 ESE 17 20 9 11 1005.9 - 0.0
01/01:00am 28.2 24.5 8.0 28 11.2 ESE 17 22 9 12 1006.0 - 0.0
01/12:30am 28.5 25.1 7.7 27 11.4 ESE 15 20 8 11 1006.0 - 0.0
01/12:00am 28.8 25.8 7.9 27 11.6 ESE 13 17 7 9 1005.9 - 0.0
 
Date/Time
WST
Temp
°C
App
Temp
°C
Dew
Point
°C
Rel
Hum
%
Delta-T
°C
Wind Press
QNH
hPa
Press
MSL
hPa
Rain since
9am
mm
Dir  Spd
km/h
Gust
km/h
Spd
kts
Gust
kts
28/11:30pm 29.2 25.4 7.7 26 11.8 ESE 17 22 9 12 1005.8 - 0.0
28/11:00pm 29.4 26.1 7.9 26 11.9 SE 15 20 8 11 1005.9 - 0.0
28/10:30pm 29.3 26.7 7.8 26 11.9 ESE 11 17 6 9 1005.8 - 0.0
28/10:00pm 30.0 27.0 7.8 25 12.3 ESE 13 19 7 10 1005.9 - 0.0
28/09:30pm 30.1 27.4 7.3 24 12.5 SE 11 15 6 8 1006.0 - 0.0
28/09:00pm 30.0 27.3 7.2 24 12.5 SE 11 15 6 8 1005.9 - 0.0
28/08:30pm 30.1 27.5 6.1 22 12.9 SSE 9 17 5 9 1005.9 - 0.0

Other formats

Comma delimited format used in spreadsheet applications
http://www.bom.gov.au/fwo/IDW60801/IDW60801.99401.axf

JavaScript Object Notation format (JSON) in row-major order
http://www.bom.gov.au/fwo/IDW60801/IDW60801.99401.json

Data quality

Most of these data are generated automatically and are frequently updated. Quality checks on data are not normally performed. It is possible for incorrect values to appear. Refer to information at About Latest Weather Observations and please check the disclaimer before using these data.